Time;durP1;ratioP1;P1;durP2;ratioP2;P2;SDS_P1;SDS_P2;PMS_P1;PMS_P2;Temp;Humidity;BMP_temperature;BMP_pressure;BME280_temperature;BME280_humidity;BME280_pressure;Samples;Min_cycle;Max_cycle;Signal;HPM_P1;HPM_P2
2023/07/10 00:01:33;;;;;;;7.80;4.35;;;22.40;99.90;;;21.54;100.00;97960.59;5045829;28;20049;-71
2023/07/10 00:04:00;;;;;;;7.53;3.78;;;22.40;99.90;;;21.37;100.00;97959.31;5046308;28;20041;-70
2023/07/10 00:06:28;;;;;;;6.88;4.45;;;22.30;99.90;;;21.48;100.00;97955.81;5041641;28;20055;-71
2023/07/10 00:08:55;;;;;;;8.50;4.55;;;22.30;99.90;;;21.37;100.00;97958.44;5040029;28;20587;-71
2023/07/10 00:11:28;;;;;;;6.57;3.85;;;22.30;99.90;;;21.37;100.00;97954.03;5041057;28;20037;-70
2023/07/10 00:13:56;;;;;;;8.02;4.15;;;22.30;99.90;;;21.45;100.00;97961.34;5043699;28;20087;-70
2023/07/10 00:16:25;;;;;;;6.00;4.53;;;22.20;99.90;;;21.20;100.00;97958.00;5044263;28;20043;-71
2023/07/10 00:18:52;;;;;;;7.70;3.83;;;22.20;99.90;;;21.38;100.00;97958.34;5045495;28;20171;-71
2023/07/10 00:21:20;;;;;;;7.63;4.65;;;22.20;99.90;;;21.05;100.00;97949.53;5045173;28;20143;-71
2023/07/10 00:23:47;;;;;;;9.00;4.75;;;22.20;99.90;;;21.10;100.00;97955.28;5046188;28;20591;-70
2023/07/10 00:26:25;;;;;;;7.95;4.65;;;22.00;99.90;;;21.35;100.00;97955.97;5044845;28;20170;-70
2023/07/10 00:28:55;;;;;;;9.75;4.60;;;22.10;99.90;;;21.10;100.00;97949.16;5042261;28;20040;-70
2023/07/10 00:31:24;;;;;;;6.50;4.00;;;22.10;99.90;;;20.94;100.00;97953.97;5043046;28;20096;-71
2023/07/10 00:33:54;;;;;;;8.30;4.22;;;22.00;99.90;;;20.78;100.00;97954.34;5044481;28;20045;-71
2023/07/10 00:36:32;;;;;;;9.88;4.80;;;21.90;99.90;;;20.83;100.00;97960.94;5045780;28;20037;-71
2023/07/10 00:39:26;;;;;;;9.73;4.47;;;21.80;99.90;;;20.54;100.00;97963.16;5037232;28;20053;-71
2023/07/10 00:42:08;;;;;;;7.68;4.47;;;21.70;99.90;;;20.82;100.00;97979.50;5029100;28;20107;-70
2023/07/10 00:44:47;;;;;;;6.18;4.55;;;21.60;99.90;;;20.67;100.00;97982.38;5027807;28;20136;-70
2023/07/10 00:47:35;;;;;;;6.43;4.20;;;21.60;99.90;;;20.85;100.00;97985.41;5042854;28;20130;-70
2023/07/10 00:50:28;;;;;;;7.72;5.28;;;21.60;99.90;;;20.57;100.00;97989.34;5058195;28;20040;-70
2023/07/10 00:52:57;;;;;;;5.60;3.90;;;21.60;99.90;;;20.84;100.00;97999.53;5045287;28;20136;-70
2023/07/10 00:55:34;;;;;;;7.55;4.88;;;21.50;99.90;;;20.75;100.00;98002.06;5025932;28;20044;-73
2023/07/10 00:58:17;;;;;;;7.85;4.80;;;21.50;99.90;;;20.77;100.00;98000.13;5041340;28;20133;-71
2023/07/10 01:01:20;;;;;;;7.50;4.50;;;21.50;99.90;;;20.70;100.00;98006.84;5039046;28;20480;-71
2023/07/10 01:03:52;;;;;;;5.78;4.40;;;21.60;99.90;;;20.84;100.00;98015.38;5041861;28;20071;-72
2023/07/10 01:06:27;;;;;;;10.38;4.85;;;21.60;99.90;;;20.93;100.00;98018.25;5046583;28;20048;-71
2023/07/10 01:09:14;;;;;;;6.63;4.82;;;21.70;99.90;;;20.81;100.00;98022.69;5045253;28;20076;-72
2023/07/10 01:11:41;;;;;;;7.75;4.07;;;21.70;99.90;;;20.84;100.00;98018.00;5040762;28;20044;-71
2023/07/10 01:14:09;;;;;;;9.45;4.30;;;21.70;99.90;;;20.84;100.00;98023.28;5041357;28;20073;-71
2023/07/10 01:16:37;;;;;;;9.98;4.63;;;21.70;99.90;;;20.84;100.00;98014.53;5045037;28;20048;-71
2023/07/10 01:19:11;;;;;;;10.82;4.38;;;21.70;99.90;;;20.80;100.00;98026.28;5044497;28;20501;-71
2023/07/10 01:21:39;;;;;;;7.30;3.75;;;21.60;99.90;;;20.76;100.00;98030.97;5044147;28;20047;-72
2023/07/10 01:24:07;;;;;;;7.63;4.45;;;21.60;99.90;;;20.70;100.00;98033.22;5044428;28;20045;-72
2023/07/10 01:26:37;;;;;;;7.97;4.90;;;21.60;99.90;;;20.60;100.00;98027.81;5043279;28;20049;-72
2023/07/10 01:29:21;;;;;;;7.18;4.50;;;21.50;99.90;;;20.48;100.00;98026.91;5043189;28;20077;-71
2023/07/10 01:31:54;;;;;;;6.68;4.45;;;21.40;99.90;;;20.59;100.00;98026.13;5040602;28;20474;-71
2023/07/10 01:34:34;;;;;;;7.22;4.60;;;21.40;99.90;;;20.53;100.00;98032.69;5043597;28;20102;-72
2023/07/10 01:37:05;;;;;;;6.18;3.85;;;21.40;99.90;;;20.54;100.00;98039.63;5040591;28;20045;-71
2023/07/10 01:39:43;;;;;;;7.53;4.30;;;21.40;99.90;;;20.31;100.00;98043.19;5040303;28;20080;-71
2023/07/10 01:42:11;;;;;;;8.57;4.55;;;21.40;99.90;;;20.30;100.00;98059.94;5025379;28;20087;-70
2023/07/10 01:44:43;;;;;;;8.27;5.18;;;21.30;99.90;;;20.28;100.00;98052.16;5042926;28;20048;-71
2023/07/10 01:47:12;;;;;;;7.15;4.68;;;21.20;99.90;;;20.37;100.00;98053.28;5039726;28;20100;-71
2023/07/10 01:49:44;;;;;;;10.60;5.35;;;21.20;99.90;;;20.36;100.00;98046.31;5043476;28;20047;-72
2023/07/10 01:52:15;;;;;;;7.35;4.47;;;21.20;99.90;;;20.31;100.00;98027.38;5034540;28;20099;-71
2023/07/10 01:54:43;;;;;;;7.75;4.50;;;21.20;99.90;;;20.29;100.00;98042.44;5041139;28;20064;-72
2023/07/10 01:57:13;;;;;;;7.78;4.35;;;21.20;99.90;;;20.19;100.00;98064.22;5041652;28;20505;-71
2023/07/10 01:59:40;;;;;;;7.70;4.07;;;21.10;99.90;;;20.23;100.00;98060.41;5037298;28;20049;-72
2023/07/10 02:02:08;;;;;;;7.60;4.30;;;21.10;99.90;;;20.16;100.00;98055.69;5043837;28;20044;-72
2023/07/10 02:04:36;;;;;;;7.22;4.50;;;21.10;99.90;;;20.15;100.00;98054.84;5042044;28;20429;-72
2023/07/10 02:07:04;;;;;;;8.85;5.10;;;21.10;99.90;;;20.20;100.00;98059.78;5039857;28;20049;-71
2023/07/10 02:09:32;;;;;;;8.18;4.78;;;21.00;99.90;;;20.31;100.00;98049.28;5043781;28;20085;-72
2023/07/10 02:12:00;;;;;;;8.15;4.22;;;21.00;99.90;;;20.35;100.00;98042.84;5046329;28;20126;-72
2023/07/10 02:14:29;;;;;;;9.10;5.05;;;21.10;99.90;;;20.41;100.00;98057.34;5043735;28;20520;-71
2023/07/10 02:16:56;;;;;;;10.95;5.10;;;21.10;99.90;;;20.37;100.00;98067.28;5028194;28;20072;-70
2023/07/10 02:19:23;;;;;;;7.95;4.43;;;21.00;99.90;;;20.24;100.00;98077.91;5041963;28;20053;-71
2023/07/10 02:21:50;;;;;;;9.60;4.85;;;20.80;99.90;;;20.12;100.00;98077.97;5044712;28;20142;-72
2023/07/10 02:24:17;;;;;;;7.35;5.10;;;20.60;99.90;;;19.94;100.00;98091.53;5043730;28;20045;-71
2023/07/10 02:26:44;;;;;;;10.15;5.35;;;20.60;99.90;;;20.01;100.00;98092.75;5040267;28;20045;-71
2023/07/10 02:29:11;;;;;;;7.88;4.95;;;20.60;99.90;;;20.23;100.00;98088.53;5041584;28;20091;-71
2023/07/10 02:31:39;;;;;;;9.73;5.10;;;20.70;99.90;;;20.34;100.00;98090.38;5042237;28;20126;-71
2023/07/10 02:34:05;;;;;;;7.88;5.07;;;20.90;99.90;;;20.29;100.00;98101.28;5043437;28;20041;-71
2023/07/10 02:36:34;;;;;;;8.18;5.03;;;21.00;99.90;;;20.35;100.00;98103.47;5040158;28;20103;-71
2023/07/10 02:39:01;;;;;;;9.55;5.38;;;21.00;99.90;;;20.31;100.00;98095.91;5042920;28;20083;-71
2023/07/10 02:41:28;;;;;;;9.90;5.45;;;21.00;99.90;;;20.24;100.00;98098.97;5045730;28;20096;-72
2023/07/10 02:43:55;;;;;;;9.98;4.75;;;21.10;99.90;;;20.41;100.00;98096.88;5046906;28;20135;-72
2023/07/10 02:46:22;;;;;;;8.30;5.45;;;21.10;99.90;;;20.39;100.00;98096.16;5047755;28;20065;-71
2023/07/10 02:48:50;;;;;;;7.43;4.88;;;21.10;99.90;;;20.48;100.00;98092.84;5045035;28;20142;-71
2023/07/10 02:51:17;;;;;;;8.35;4.72;;;21.20;99.90;;;20.54;100.00;98100.28;5063082;28;20045;-72
2023/07/10 02:53:44;;;;;;;7.95;4.88;;;21.20;99.90;;;20.40;100.00;98103.97;5059965;28;20053;-71
2023/07/10 02:56:11;;;;;;;8.10;5.05;;;21.10;99.90;;;20.47;100.00;98099.06;5042358;28;20114;-70
2023/07/10 02:58:38;;;;;;;9.48;5.15;;;21.20;99.90;;;20.55;100.00;98107.28;5048317;28;20521;-72
2023/07/10 03:01:05;;;;;;;9.07;4.30;;;21.20;99.90;;;20.77;100.00;98095.13;5046022;28;20049;-71
2023/07/10 03:03:32;;;;;;;8.60;4.75;;;21.30;99.90;;;20.75;100.00;98092.59;5044780;28;20049;-71
2023/07/10 03:06:02;;;;;;;6.65;4.57;;;21.30;99.90;;;20.80;100.00;98095.72;5044481;28;20045;-71
2023/07/10 03:08:30;;;;;;;8.70;4.72;;;21.30;99.90;;;20.53;100.00;98111.81;5030206;28;20632;-71
2023/07/10 03:11:14;;;;;;;7.72;4.03;;;21.30;99.90;;;20.63;100.00;98104.91;5045286;28;20101;-71
2023/07/10 03:13:41;;;;;;;7.85;4.65;;;21.30;99.90;;;20.64;100.00;98101.34;5043003;28;20084;-71
2023/07/10 03:16:12;;;;;;;6.45;4.50;;;21.30;99.90;;;20.66;100.00;98103.84;5046474;28;20041;-71
2023/07/10 03:18:42;;;;;;;8.02;4.70;;;21.30;99.90;;;20.72;100.00;98099.91;5047594;28;20053;-72
2023/07/10 03:21:10;;;;;;;8.15;4.38;;;21.30;99.90;;;20.61;100.00;98093.63;5044996;28;20505;-72
2023/07/10 03:23:37;;;;;;;7.80;4.45;;;21.30;99.90;;;20.69;100.00;98103.63;5046312;28;20109;-72
2023/07/10 03:26:04;;;;;;;8.75;4.45;;;21.30;99.90;;;20.72;100.00;98103.38;5047188;28;20135;-71
2023/07/10 03:28:36;;;;;;;7.07;4.00;;;21.30;99.90;;;20.89;100.00;98095.03;5041484;28;20056;-71
2023/07/10 03:31:05;;;;;;;9.00;4.88;;;21.40;99.90;;;21.04;100.00;98097.44;5047193;28;20045;-72
2023/07/10 03:33:33;;;;;;;7.07;4.55;;;21.40;99.90;;;21.08;100.00;98085.69;5041159;28;20106;-71
2023/07/10 03:36:06;;;;;;;7.40;4.90;;;21.50;99.90;;;20.95;100.00;98098.16;5047393;28;20048;-71
2023/07/10 03:38:34;;;;;;;8.50;4.53;;;21.50;99.90;;;20.91;100.00;98097.53;5047374;28;20055;-71
2023/07/10 03:41:02;;;;;;;10.15;4.20;;;21.50;99.90;;;20.93;100.00;98105.34;5046247;28;20056;-72
2023/07/10 03:43:29;;;;;;;9.25;4.90;;;21.50;99.90;;;20.89;100.00;98107.34;5046995;28;20458;-71
2023/07/10 03:45:56;;;;;;;9.05;4.82;;;21.50;99.90;;;20.93;100.00;98127.28;5044758;28;20139;-72
2023/07/10 03:48:23;;;;;;;7.22;4.82;;;21.40;99.90;;;20.82;100.00;98125.47;5046559;28;20502;-71
2023/07/10 03:50:51;;;;;;;6.32;4.07;;;21.40;99.90;;;20.78;100.00;98128.47;5027585;28;20076;-71
2023/07/10 03:53:18;;;;;;;7.20;4.30;;;21.50;99.90;;;20.70;100.00;98134.31;5041518;28;20437;-71
2023/07/10 03:55:53;;;;;;;9.60;4.65;;;21.40;99.90;;;20.66;100.00;98143.41;5031295;28;20557;-71
2023/07/10 03:58:31;;;;;;;6.80;4.32;;;21.30;99.90;;;20.61;100.00;98150.81;5043358;28;20052;-71
2023/07/10 04:01:00;;;;;;;9.60;4.70;;;21.20;99.90;;;20.42;100.00;98160.06;5042362;28;20340;-71
2023/07/10 04:03:31;;;;;;;6.75;4.50;;;21.00;99.90;;;20.48;100.00;98166.66;5041233;28;20510;-72
2023/07/10 04:06:00;;;;;;;7.65;4.82;;;20.90;99.90;;;20.47;100.00;98171.09;5041243;28;20060;-70
2023/07/10 04:08:36;;;;;;;8.88;4.93;;;20.90;99.90;;;20.36;100.00;98173.69;5044518;28;20226;-72
2023/07/10 04:11:06;;;;;;;9.35;5.35;;;20.90;99.90;;;20.21;100.00;98173.03;5029053;28;20046;-71
2023/07/10 04:13:34;;;;;;;7.07;4.65;;;20.90;99.90;;;20.22;100.00;98181.78;5018817;28;20531;-71
2023/07/10 04:16:11;;;;;;;6.30;4.80;;;20.90;99.90;;;20.34;100.00;98188.78;5024966;28;20041;-69
2023/07/10 04:18:41;;;;;;;9.27;5.55;;;21.00;99.90;;;20.39;100.00;98201.63;5028496;28;20085;-69
2023/07/10 04:21:17;;;;;;;11.02;4.80;;;20.90;99.90;;;20.40;100.00;98203.31;5024735;28;20118;-71
2023/07/10 04:23:47;;;;;;;8.65;5.32;;;20.90;99.90;;;20.26;100.00;98207.78;5011312;28;20056;-70
2023/07/10 04:26:25;;;;;;;8.93;5.80;;;20.70;99.90;;;20.15;100.00;98231.44;5023386;28;20041;-70
2023/07/10 04:28:57;;;;;;;7.95;5.28;;;20.70;99.90;;;20.21;100.00;98236.28;5030718;28;20056;-72
2023/07/10 04:31:25;;;;;;;10.20;5.35;;;20.70;99.90;;;20.17;100.00;98239.25;5036121;28;20103;-72
2023/07/10 04:33:53;;;;;;;9.27;5.47;;;20.80;99.90;;;20.17;100.00;98253.25;5038396;28;20131;-72
2023/07/10 04:36:21;;;;;;;10.88;6.10;;;20.70;99.90;;;20.03;100.00;98261.31;5027677;28;20131;-70
2023/07/10 04:38:49;;;;;;;7.97;6.18;;;20.70;99.90;;;20.10;100.00;98273.09;5039774;28;20616;-72
2023/07/10 04:41:21;;;;;;;10.35;6.05;;;20.80;99.90;;;20.25;100.00;98268.53;5042826;28;20052;-70
2023/07/10 04:43:49;;;;;;;10.95;5.35;;;20.80;99.90;;;20.20;100.00;98276.75;5041412;28;20084;-71
2023/07/10 04:46:18;;;;;;;10.80;6.47;;;20.80;99.90;;;20.17;100.00;98284.06;5039366;28;20053;-72
2023/07/10 04:48:46;;;;;;;11.65;5.20;;;20.80;99.90;;;20.32;100.00;98285.63;5039363;28;20049;-72
2023/07/10 04:51:15;;;;;;;9.68;6.43;;;20.90;99.90;;;20.45;100.00;98280.28;5042071;28;20123;-71
2023/07/10 04:53:43;;;;;;;10.23;6.07;;;21.00;99.90;;;20.37;100.00;98282.66;5044751;28;20123;-72
2023/07/10 04:56:12;;;;;;;10.88;5.50;;;21.00;99.90;;;20.43;100.00;98280.38;5027234;28;20056;-71
2023/07/10 04:58:56;;;;;;;8.95;5.50;;;21.00;99.90;;;20.56;100.00;98285.66;5042858;28;20060;-71
2023/07/10 05:01:29;;;;;;;10.38;5.25;;;21.10;99.90;;;20.67;100.00;98283.09;5041958;28;20544;-71
2023/07/10 05:03:57;;;;;;;7.88;4.93;;;21.20;99.90;;;20.84;100.00;98268.66;5039813;28;20466;-71
2023/07/10 05:06:25;;;;;;;6.65;4.90;;;21.30;99.90;;;20.78;100.00;98271.78;5042782;28;20049;-72
2023/07/10 05:08:55;;;;;;;9.50;5.38;;;21.40;99.90;;;20.96;100.00;98268.72;5043060;28;20053;-72
2023/07/10 05:11:25;;;;;;;10.63;6.03;;;21.40;99.90;;;20.88;100.00;98267.50;5043806;28;20515;-71
2023/07/10 05:13:52;;;;;;;10.82;6.07;;;21.50;99.90;;;21.12;100.00;98265.78;5045632;28;20068;-70
2023/07/10 05:16:20;;;;;;;11.02;6.20;;;21.60;99.90;;;21.09;100.00;98259.78;5042891;28;20580;-71
2023/07/10 05:18:47;;;;;;;10.52;6.10;;;21.60;99.90;;;21.22;100.00;98251.78;5041945;28;20055;-72
2023/07/10 05:21:15;;;;;;;10.88;6.18;;;21.70;99.90;;;21.18;100.00;98252.97;5042755;28;20053;-72
2023/07/10 05:23:43;;;;;;;11.05;6.32;;;21.80;99.90;;;21.04;100.00;98250.53;5042652;28;20056;-72
2023/07/10 05:26:14;;;;;;;8.63;5.75;;;21.60;99.90;;;20.96;100.00;98259.03;5041775;28;20474;-72
2023/07/10 05:28:41;;;;;;;9.85;5.75;;;21.50;99.90;;;21.20;100.00;98268.69;5046157;28;20040;-71
2023/07/10 05:31:11;;;;;;;10.80;6.07;;;21.60;99.90;;;21.16;100.00;98254.03;5041728;28;20099;-71
2023/07/10 05:33:39;;;;;;;9.35;5.70;;;21.70;99.90;;;21.29;100.00;98255.63;5043771;28;20060;-72
2023/07/10 05:36:10;;;;;;;13.23;6.78;;;21.80;99.90;;;21.30;100.00;98259.97;5026762;28;20058;-71
2023/07/10 05:38:38;;;;;;;9.98;6.25;;;21.80;99.90;;;21.52;100.00;98259.19;5045330;28;20044;-72
2023/07/10 05:41:07;;;;;;;10.82;6.25;;;21.90;99.90;;;21.77;100.00;98251.19;5029418;28;20655;-72
2023/07/10 05:43:35;;;;;;;10.40;6.25;;;22.00;99.90;;;21.73;100.00;98247.94;5043987;28;20349;-72
2023/07/10 05:46:03;;;;;;;10.02;6.30;;;22.10;99.90;;;21.85;100.00;98238.19;5040532;28;20871;-72
2023/07/10 05:48:32;;;;;;;12.02;6.40;;;22.10;99.90;;;21.60;100.00;98248.06;5043388;28;20073;-72
2023/07/10 05:50:59;;;;;;;13.02;5.90;;;22.00;99.90;;;21.82;100.00;98249.84;5040635;28;20050;-71
2023/07/10 05:53:27;;;;;;;12.07;7.30;;;22.00;99.90;;;21.42;100.00;98266.16;5043305;28;20119;-72
2023/07/10 05:55:56;;;;;;;10.80;6.80;;;22.00;99.90;;;21.59;100.00;98262.22;5022616;28;20679;-72
2023/07/10 05:58:27;;;;;;;10.60;6.65;;;21.80;99.90;;;21.75;100.00;98266.31;5045072;28;20153;-72
2023/07/10 06:00:58;;;;;;;13.02;7.15;;;21.80;99.90;;;21.57;100.00;98274.69;5043696;28;20128;-71
2023/07/10 06:03:26;;;;;;;10.07;6.45;;;21.80;99.90;;;21.81;100.00;98282.53;5037538;28;20090;-71
2023/07/10 06:06:02;;;;;;;11.75;6.43;;;21.70;99.90;;;21.73;100.00;98287.56;5033275;28;20531;-71
2023/07/10 06:08:31;;;;;;;12.68;6.63;;;21.80;99.90;;;21.54;100.00;98285.50;5042174;28;20702;-72
2023/07/10 06:10:58;;;;;;;9.35;6.88;;;21.80;99.90;;;21.74;100.00;98289.25;5045197;28;20045;-72
2023/07/10 06:13:26;;;;;;;11.40;6.32;;;21.80;99.90;;;21.71;100.00;98293.00;5035527;28;20124;-70
2023/07/10 06:15:56;;;;;;;11.05;6.20;;;21.80;99.90;;;21.89;100.00;98295.16;5043496;28;20215;-72
2023/07/10 06:18:25;;;;;;;11.60;6.93;;;21.90;99.90;;;21.97;100.00;98279.56;5039656;28;20120;-71
2023/07/10 06:20:56;;;;;;;12.15;6.80;;;21.90;99.90;;;21.95;100.00;98278.81;5044097;28;20048;-72
2023/07/10 06:23:25;;;;;;;11.55;6.32;;;22.00;99.90;;;22.17;100.00;98283.28;5044894;28;20052;-72
2023/07/10 06:25:52;;;;;;;12.32;6.90;;;22.20;99.90;;;22.32;100.00;98268.84;5039732;28;20144;-72
2023/07/10 06:28:21;;;;;;;11.15;6.05;;;22.40;99.90;;;22.49;100.00;98279.91;5040588;28;20053;-71
2023/07/10 06:30:58;;;;;;;11.85;6.05;;;22.60;99.90;;;22.71;100.00;98266.59;5039517;28;20087;-72
2023/07/10 06:33:28;;;;;;;11.60;6.05;;;22.80;99.90;;;22.50;100.00;98263.06;5042215;28;20064;-72
2023/07/10 06:35:56;;;;;;;12.50;7.25;;;22.80;99.90;;;22.67;100.00;98267.84;5035143;28;20136;-72
2023/07/10 06:38:23;;;;;;;8.77;6.32;;;23.00;99.90;;;22.83;100.00;98269.22;5039612;28;20148;-72
2023/07/10 06:40:51;;;;;;;8.60;5.40;;;23.10;99.90;;;23.15;100.00;98256.84;5042358;28;20135;-72
2023/07/10 06:43:20;;;;;;;8.23;5.53;;;23.30;99.90;;;23.53;100.00;98244.81;5042668;28;20040;-72
2023/07/10 06:45:47;;;;;;;9.27;4.95;;;23.60;99.90;;;23.77;100.00;98233.13;5041559;28;20115;-72
2023/07/10 06:48:15;;;;;;;8.60;5.15;;;23.80;99.90;;;23.84;100.00;98225.50;5040958;28;20049;-72
2023/07/10 06:50:48;;;;;;;8.02;5.35;;;24.00;99.90;;;23.87;100.00;98223.41;5052706;28;20808;-72
2023/07/10 06:53:15;;;;;;;9.93;5.82;;;24.00;99.90;;;23.71;100.00;98221.19;5043212;28;20114;-72
2023/07/10 06:55:55;;;;;;;10.85;5.75;;;23.80;99.90;;;23.64;100.00;98217.41;5040418;28;20074;-72
2023/07/10 06:58:22;;;;;;;9.00;5.70;;;23.80;99.90;;;23.75;100.00;98220.00;5056794;28;20365;-71
2023/07/10 07:00:49;;;;;;;12.07;5.97;;;23.90;99.90;;;23.79;100.00;98221.41;5039020;28;20064;-72
2023/07/10 07:03:17;;;;;;;13.57;6.40;;;23.80;99.90;;;23.73;100.00;98219.25;5039426;28;20056;-72
2023/07/10 07:05:44;;;;;;;10.55;5.40;;;23.80;99.90;;;24.06;100.00;98209.34;5042501;28;20163;-72
2023/07/10 07:08:13;;;;;;;11.25;5.50;;;24.00;99.90;;;24.38;100.00;98200.34;5036846;28;20045;-72
2023/07/10 07:10:41;;;;;;;10.20;4.90;;;24.40;99.90;;;24.43;100.00;98195.50;5042687;28;20041;-72
2023/07/10 07:13:10;;;;;;;9.13;5.63;;;24.70;99.90;;;24.58;100.00;98195.94;5041763;28;20493;-71
2023/07/10 07:15:37;;;;;;;9.85;5.47;;;24.80;99.90;;;24.67;100.00;98183.66;5036669;28;20394;-72
2023/07/10 07:18:05;;;;;;;12.70;5.40;;;25.00;99.90;;;24.72;100.00;98178.78;5042267;28;20137;-72
2023/07/10 07:20:33;;;;;;;10.15;5.25;;;24.80;99.90;;;24.71;100.00;98182.41;5040901;28;20057;-72
2023/07/10 07:23:01;;;;;;;12.07;5.72;;;24.80;99.90;;;24.54;100.00;98182.13;5042699;28;20137;-71
2023/07/10 07:25:29;;;;;;;9.88;5.22;;;24.90;99.90;;;25.03;100.00;98187.44;5041060;28;20049;-72
2023/07/10 07:28:03;;;;;;;9.00;4.65;;;25.10;99.90;;;25.16;100.00;98174.69;5034851;28;20532;-71
2023/07/10 07:30:32;;;;;;;10.13;6.18;;;25.30;99.90;;;24.80;100.00;98177.09;5044513;28;20042;-72
2023/07/10 07:33:01;;;;;;;8.82;5.03;;;24.90;99.90;;;24.81;100.00;98180.59;5045076;28;20539;-71
2023/07/10 07:35:28;;;;;;;12.55;5.88;;;24.90;99.90;;;24.69;100.00;98179.91;5025305;28;20041;-73
2023/07/10 07:37:55;;;;;;;10.98;6.10;;;25.00;99.90;;;24.39;100.00;98183.47;5040551;28;20072;-71
2023/07/10 07:40:23;;;;;;;9.30;5.35;;;24.80;99.90;;;24.73;100.00;98185.78;5046065;28;20106;-72
2023/07/10 07:42:50;;;;;;;9.15;5.07;;;24.70;99.90;;;24.71;100.00;98182.41;5045747;28;20053;-72
2023/07/10 07:45:17;;;;;;;9.90;5.28;;;24.70;99.90;;;24.86;100.00;98178.38;5044741;28;20091;-72
2023/07/10 07:47:44;;;;;;;8.35;4.65;;;24.90;99.90;;;25.18;100.00;98171.88;5045621;28;20521;-72
2023/07/10 07:50:12;;;;;;;7.82;5.13;;;25.00;99.90;;;25.00;100.00;98172.63;5045563;28;20130;-72
2023/07/10 07:52:39;;;;;;;7.68;5.72;;;25.00;99.90;;;24.87;100.00;98176.53;5042797;28;20064;-73
2023/07/10 07:55:07;;;;;;;10.15;5.68;;;25.20;99.90;;;25.06;100.00;98173.84;5043361;28;20076;-73
2023/07/10 07:57:34;;;;;;;7.82;4.93;;;25.20;99.90;;;25.45;100.00;98179.97;5042838;28;20060;-73
2023/07/10 08:00:02;;;;;;;8.32;4.82;;;25.40;99.90;;;25.62;100.00;98177.53;5042193;28;20079;-71
2023/07/10 08:02:30;;;;;;;12.57;4.68;;;25.60;99.90;;;25.66;100.00;98177.09;5045716;28;20052;-72
2023/07/10 08:04:59;;;;;;;9.07;4.65;;;25.80;99.90;;;25.76;100.00;98174.38;5044235;28;20775;-71
2023/07/10 08:07:29;;;;;;;9.40;5.20;;;25.80;99.90;;;25.97;100.00;98168.84;5059442;28;20052;-72
2023/07/10 08:09:58;;;;;;;9.13;5.45;;;26.00;99.90;;;25.98;100.00;98162.56;5041664;28;20177;-72
2023/07/10 08:12:25;;;;;;;11.93;5.22;;;25.80;99.90;;;25.73;100.00;98173.81;5043495;28;20106;-73
2023/07/10 08:14:53;;;;;;;7.85;4.82;;;25.50;99.90;;;25.74;100.00;98162.22;5030998;28;20068;-73
2023/07/10 08:17:20;;;;;;;17.25;5.35;;;25.60;99.90;;;25.46;100.00;98159.53;5045312;28;20238;-72
2023/07/10 08:19:47;;;;;;;7.85;4.80;;;25.80;99.90;;;26.33;100.00;98155.59;5044230;28;20103;-73
2023/07/10 08:22:17;;;;;;;8.63;4.40;;;26.20;99.90;;;26.54;100.00;98155.31;5046693;28;20141;-72
2023/07/10 08:24:44;;;;;;;7.05;4.45;;;26.50;99.90;;;25.96;100.00;98161.03;5045451;28;20495;-72
2023/07/10 08:27:14;;;;;;;10.38;4.75;;;26.40;99.90;;;26.24;100.00;98172.47;5046479;28;20041;-72
2023/07/10 08:29:41;;;;;;;9.02;5.18;;;26.20;99.90;;;25.86;100.00;98166.34;5040780;28;20513;-73
2023/07/10 08:32:08;;;;;;;8.25;5.25;;;25.80;99.90;;;25.62;100.00;98172.22;5042483;28;20051;-73
2023/07/10 08:34:36;;;;;;;7.25;4.60;;;26.00;99.90;;;25.80;100.00;98170.44;5040443;28;20138;-71
2023/07/10 08:37:05;;;;;;;10.70;5.13;;;25.60;99.90;;;25.75;100.00;98161.22;5026903;28;20094;-73
2023/07/10 08:39:32;;;;;;;8.07;4.82;;;25.70;99.90;;;26.08;100.00;98159.84;5042455;28;20375;-73
2023/07/10 08:42:12;;;;;;;10.85;5.25;;;25.90;99.90;;;26.13;100.00;98160.22;5042142;28;20126;-72
2023/07/10 08:44:40;;;;;;;8.50;5.35;;;26.00;99.90;;;26.15;100.00;98158.25;5034854;28;20041;-72
2023/07/10 08:47:37;;;;;;;8.13;4.80;;;26.10;99.90;;;26.35;100.00;98166.13;5033694;28;20049;-70
2023/07/10 08:50:15;;;;;;;11.73;4.97;;;26.10;99.90;;;26.43;100.00;98160.84;5032270;28;20083;-72
2023/07/10 08:53:07;;;;;;;7.25;4.15;;;25.90;99.90;;;26.27;100.00;98157.06;5015371;28;20044;-71
2023/07/10 08:55:58;;;;;;;;;;;25.90;99.90;;;26.00;100.00;98157.06;5034960;28;20076;-72
2023/07/10 08:58:30;;;;;;;8.10;4.90;;;25.80;99.90;;;26.86;100.00;98156.59;5039161;28;19924;-72
2023/07/10 09:01:02;;;;;;;6.18;4.55;;;26.10;99.90;;;27.52;100.00;98148.06;5044333;28;20052;-74
2023/07/10 09:03:37;;;;;;;;;;;26.60;99.90;;;27.86;100.00;98146.44;5042222;28;20148;-74
2023/07/10 09:06:17;;;;;;;7.03;4.57;;;27.00;99.90;;;28.13;100.00;98148.84;5021468;28;19925;-73
2023/07/10 09:08:52;;;;;;;8.60;5.07;;;27.50;99.90;;;28.01;100.00;98143.97;5043402;28;20604;-73
2023/07/10 09:11:23;;;;;;;8.85;5.18;;;27.90;99.90;;;27.62;100.00;98152.44;5045244;28;20052;-73
2023/07/10 09:14:00;;;;;;;7.25;4.63;;;28.00;99.90;;;28.53;100.00;98154.44;5046658;28;20136;-74
2023/07/10 09:16:29;;;;;;;12.13;5.75;;;28.10;99.90;;;28.34;100.00;98155.56;5043496;28;20049;-73
2023/07/10 09:19:05;;;;;;;11.43;5.47;;;28.20;99.90;;;28.35;100.00;98157.22;5040232;28;20041;-73
2023/07/10 09:21:36;;;;;;;11.70;4.30;;;28.50;99.90;;;28.25;100.00;98161.88;5042094;28;20148;-74
2023/07/10 09:24:04;;;;;;;7.22;4.10;;;28.50;99.90;;;28.61;100.00;98154.47;5041997;28;20107;-75
2023/07/10 09:26:39;;;;;;;8.95;4.47;;;28.60;99.90;;;28.84;100.00;98153.81;5042987;28;20081;-75
2023/07/10 09:29:09;;;;;;;8.43;4.88;;;28.90;99.90;;;28.80;100.00;98144.47;5033923;28;20076;-72
2023/07/10 09:31:58;;;;;;;9.07;4.30;;;29.40;99.90;;;29.46;100.00;98131.84;5042596;28;20124;-74
2023/07/10 09:34:32;;;;;;;5.30;3.45;;;29.50;99.90;;;29.24;100.00;98141.44;5038769;28;20044;-74
2023/07/10 09:37:11;;;;;;;5.70;3.40;;;29.50;99.90;;;28.81;100.00;98144.31;5040310;28;20052;-72
2023/07/10 09:39:40;;;;;;;6.95;3.50;;;29.70;99.90;;;29.27;100.00;98125.06;5048911;28;20045;-80
2023/07/10 09:42:20;;;;;;;5.15;3.42;;;30.20;99.90;;;29.62;100.00;98150.53;5049268;28;20095;-79
2023/07/10 09:44:51;;;;;;;8.60;3.80;;;30.30;99.90;;;29.46;100.00;98137.19;5027205;28;20122;-79
2023/07/10 09:47:20;;;;;;;6.05;3.67;;;29.90;99.90;;;28.93;100.00;98145.63;5049640;28;20619;-78
2023/07/10 09:49:55;;;;;;;7.25;4.15;;;29.00;99.90;;;28.89;100.00;98136.25;5041905;28;20525;-77
2023/07/10 09:52:29;;;;;;;6.55;4.10;;;29.00;99.90;;;28.96;100.00;98123.91;5040717;28;20053;-77
2023/07/10 09:55:11;;;;;;;11.90;5.28;;;29.30;99.90;;;28.99;100.00;98136.94;5045703;28;20102;-78
2023/07/10 09:57:57;;;;;;;5.63;4.35;;;29.80;99.90;;;29.58;100.00;98135.81;5046324;28;20099;-78
2023/07/10 10:00:26;;;;;;;6.28;4.78;;;29.50;99.90;;;28.45;100.00;98141.06;5048757;28;20053;-77
2023/07/10 10:03:04;;;;;;;10.48;5.40;;;29.00;99.90;;;28.47;100.00;98163.97;5048048;28;20056;-77
2023/07/10 10:05:31;;;;;;;7.18;5.10;;;28.00;99.90;;;29.45;100.00;98133.69;5046933;28;20067;-78
2023/07/10 10:08:28;;;;;;;8.90;5.78;;;28.70;99.90;;;29.02;100.00;98141.09;5046245;28;20098;-78
2023/07/10 10:11:09;;;;;;;6.93;4.97;;;28.70;99.90;;;29.42;100.00;98130.53;5045884;28;20107;-78
2023/07/10 10:13:47;;;;;;;9.20;4.00;;;28.90;99.90;;;29.81;100.00;98141.31;5033600;28;20068;-79
2023/07/10 10:16:39;;;;;;;6.50;4.30;;;29.50;99.90;;;28.90;100.00;98135.28;5048329;28;20053;-79
2023/07/10 10:19:27;;;;;;;7.75;4.70;;;29.00;99.90;;;28.97;100.00;98132.78;5048066;28;20059;-79
2023/07/10 10:21:54;;;;;;;9.82;4.10;;;29.10;99.90;;;30.09;100.00;98133.63;5036696;28;20102;-78
2023/07/10 10:24:21;;;;;;;6.20;4.68;;;29.50;99.90;;;29.17;100.00;98130.56;5026396;28;20114;-78
2023/07/10 10:27:34;;;;;;;8.80;4.40;;;29.10;99.90;;;29.54;100.00;98140.69;5046163;28;20053;-79